LEST/SCQ METAR and TAF weather

Enter ICAO airport designator
Station Type Date Time Source
LEST METAR 2019/08/18 08:30 UTC NOAA

LEST 180830Z 01007KT 340V050 9999 FEW009 BKN016 BKN020 15/14 Q1016 NOSIG


Station Type Date Time Source
LEST Decoded METAR 2019/08/18 08:30 UTC NOAA

Station name not available
Aug 18, 2019 - 04:30 AM EDT / 2019.08.18 0830 UTC
Wind: from the N (010 degrees) at 8 MPH (7 KT) (direction variable):0
Visibility: greater than 7 mile(s):0
Sky conditions: mostly cloudy
Temperature: 59 F (15 C)
Dew Point: 57 F (14 C)
Relative Humidity: 93%
Pressure (altimeter): 30.00 in. Hg (1016 hPa)
ob: LEST 180830Z 01007KT 340V050 9999 FEW009 BKN016 BKN020 15/14 Q1016 NOSIG
cycle: 8

Station Type Date Time Source
LEST TAF 2019/08/18 06:27 UTC NOAA

TAF LEST 180500Z 1806/1906 33009KT 9999 BKN020 TX20/1814Z TN12/1906Z
TEMPO 1806/1812 3000 -RADZ BKN005 BKN010 PROB40
TEMPO 1806/1808 1500 RADZ BKN002 BKN005 PROB40
TEMPO 1806/1808 0350 RADZ BCFG VV001 PROB40
TEMPO 1900/1906 1500 BCFG BKN002 BKN005

Example: see airport list